createdAt,value
2024-01-24T00:01:07.938Z,102385.27
2024-01-24T00:03:34.995Z,102382.84
2024-01-24T00:06:01.872Z,102395.11
2024-01-24T00:08:29.508Z,102386.89
2024-01-24T00:10:56.385Z,102378.52
2024-01-24T00:13:23.522Z,102386.03
2024-01-24T00:15:50.444Z,102394.61
2024-01-24T00:18:18.103Z,102384.80
2024-01-24T00:20:45.148Z,102378.52
2024-01-24T00:23:12.358Z,102377.42
2024-01-24T00:25:39.256Z,102375.29
2024-01-24T00:28:07.546Z,102375.44
2024-01-24T00:30:34.420Z,102372.28
2024-01-24T00:33:02.929Z,102374.38
2024-01-24T00:35:29.817Z,102385.02
2024-01-24T00:37:57.147Z,102386.77
2024-01-24T00:40:24.026Z,102383.61
2024-01-24T00:42:50.921Z,102371.91
2024-01-24T00:45:18.280Z,102380.15
2024-01-24T00:47:45.834Z,102374.90
2024-01-24T00:50:12.717Z,102368.78
2024-01-24T00:52:39.528Z,102363.53
2024-01-24T00:55:07.592Z,102360.04
2024-01-24T00:57:34.454Z,102359.38
2024-01-24T01:00:01.276Z,102354.48
2024-01-24T01:02:28.081Z,102351.00
2024-01-24T01:04:54.998Z,102352.95
2024-01-24T01:07:21.885Z,102353.64
2024-01-24T01:09:48.765Z,102352.98
2024-01-24T01:12:15.773Z,102358.05
2024-01-24T01:14:42.745Z,102357.70
2024-01-24T01:17:09.594Z,102362.44
2024-01-24T01:19:36.473Z,102363.52
2024-01-24T01:22:04.578Z,102364.56
2024-01-24T01:24:31.503Z,102357.21
2024-01-24T01:26:58.338Z,102335.71
2024-01-24T01:29:25.177Z,102330.44
2024-01-24T01:31:52.201Z,102330.77
2024-01-24T01:34:19.139Z,102331.96
2024-01-24T01:36:46.093Z,102322.34
2024-01-24T01:39:12.999Z,102321.29
2024-01-24T01:41:39.864Z,102326.36
2024-01-24T01:44:06.660Z,102325.13
2024-01-24T01:46:33.887Z,102320.77
2024-01-24T01:49:01.116Z,102318.84
2024-01-24T01:51:28.578Z,102320.94
2024-01-24T01:53:55.888Z,102327.06
2024-01-24T01:56:23.689Z,102325.66
2024-01-24T01:58:50.951Z,102319.55
2024-01-24T02:01:18.594Z,102320.63
2024-01-24T02:03:48.260Z,102324.49
2024-01-24T02:06:15.318Z,102323.46
2024-01-24T02:08:44.340Z,102315.96
2024-01-24T02:11:11.733Z,102300.40
2024-01-24T02:13:38.792Z,102302.33
2024-01-24T02:16:06.045Z,102300.77
2024-01-24T02:18:33.046Z,102295.02
2024-01-24T02:21:02.998Z,102291.70
2024-01-24T02:23:31.594Z,102296.94
2024-01-24T02:25:58.988Z,102306.21
2024-01-24T02:28:26.401Z,102306.76
2024-01-24T02:30:53.298Z,102305.36
2024-01-24T02:33:20.315Z,102298.38
2024-01-24T02:35:50.365Z,102297.67
2024-01-24T02:38:18.032Z,102296.80
2024-01-24T02:40:44.845Z,102289.98
2024-01-24T02:43:11.697Z,102280.72
2024-01-24T02:45:38.501Z,102283.52
2024-01-24T02:48:06.249Z,102289.30
2024-01-24T02:50:33.240Z,102277.96
2024-01-24T02:53:00.176Z,102274.42
2024-01-24T02:55:27.029Z,102284.74
2024-01-24T02:57:53.926Z,102284.17
2024-01-24T03:00:20.874Z,102284.14
2024-01-24T03:02:47.906Z,102268.73
2024-01-24T03:05:15.045Z,102254.38
2024-01-24T03:07:42.268Z,102255.78
2024-01-24T03:10:12.986Z,102247.77
2024-01-24T03:12:39.922Z,102240.26
2024-01-24T03:15:07.337Z,102248.83
2024-01-24T03:17:35.230Z,102247.42
2024-01-24T03:20:02.118Z,102250.73
2024-01-24T03:22:29.003Z,102256.73
2024-01-24T03:24:56.005Z,102255.37
2024-01-24T03:27:22.945Z,102257.30
2024-01-24T03:29:50.280Z,102250.67
2024-01-24T03:32:17.280Z,102239.34
2024-01-24T03:34:53.955Z,102251.95
2024-01-24T03:37:20.869Z,102248.47
2024-01-24T03:39:47.748Z,102242.88
2024-01-24T03:42:14.931Z,102239.05
2024-01-24T03:44:41.910Z,102234.17
2024-01-24T03:47:08.771Z,102234.18
2024-01-24T03:49:35.659Z,102227.18
2024-01-24T03:52:05.942Z,102228.77
2024-01-24T03:54:32.772Z,102227.73
2024-01-24T03:56:59.697Z,102228.61
2024-01-24T03:59:26.587Z,102228.98
2024-01-24T04:01:55.874Z,102232.46
2024-01-24T04:04:22.869Z,102226.91
2024-01-24T04:06:50.142Z,102220.80
2024-01-24T04:09:17.242Z,102211.58
2024-01-24T04:11:44.127Z,102208.09
2024-01-24T04:14:10.979Z,102204.41
2024-01-24T04:16:40.860Z,102205.98
2024-01-24T04:19:08.377Z,102213.65
2024-01-24T04:21:49.092Z,102210.48
2024-01-24T04:24:17.078Z,102201.41
2024-01-24T04:26:44.013Z,102196.13
2024-01-24T04:29:13.670Z,102196.10
2024-01-24T04:31:42.912Z,102195.55
2024-01-24T04:34:09.956Z,102192.57
2024-01-24T04:36:37.053Z,102197.43
2024-01-24T04:39:04.039Z,102199.53
2024-01-24T04:41:30.827Z,102199.53
2024-01-24T04:43:57.634Z,102202.50
2024-01-24T04:46:24.489Z,102194.63
2024-01-24T04:48:51.443Z,102185.73
2024-01-24T04:51:18.282Z,102188.36
2024-01-24T04:53:45.204Z,102193.79
2024-01-24T04:56:12.201Z,102198.52
2024-01-24T04:58:41.393Z,102203.42
2024-01-24T05:01:08.207Z,102197.64
2024-01-24T05:03:35.233Z,102191.73
2024-01-24T05:06:07.622Z,102198.02
2024-01-24T05:08:37.706Z,102201.69
2024-01-24T05:11:05.614Z,102202.94
2024-01-24T05:13:33.119Z,102200.50
2024-01-24T05:16:00.554Z,102193.70
2024-01-24T05:18:27.577Z,102182.54
2024-01-24T05:20:54.609Z,102178.17
2024-01-24T05:23:21.496Z,102181.52
2024-01-24T05:25:48.840Z,102177.34
2024-01-24T05:28:15.942Z,102170.67
2024-01-24T05:30:43.178Z,102169.25
2024-01-24T05:33:11.964Z,102168.34
2024-01-24T05:35:39.035Z,102170.26
2024-01-24T05:38:05.918Z,102167.44
2024-01-24T05:40:32.731Z,102166.89
2024-01-24T05:43:00.734Z,102163.39
2024-01-24T05:45:27.716Z,102161.13
2024-01-24T05:47:54.703Z,102153.08
2024-01-24T05:50:21.756Z,102162.52
2024-01-24T05:52:48.669Z,102172.49
2024-01-24T05:55:15.524Z,102167.27
2024-01-24T05:57:43.270Z,102173.23
2024-01-24T06:00:15.931Z,102172.88
2024-01-24T06:02:45.183Z,102170.96
2024-01-24T06:05:15.942Z,102171.79
2024-01-24T06:07:49.911Z,102175.23
2024-01-24T06:10:26.584Z,102177.80
2024-01-24T06:12:53.497Z,102181.95
2024-01-24T06:15:20.868Z,102180.34
2024-01-24T06:17:50.472Z,102176.48
2024-01-24T06:20:17.850Z,102177.14
2024-01-24T06:22:46.632Z,102170.15
2024-01-24T06:25:15.065Z,102176.77
2024-01-24T06:27:43.414Z,102179.75
2024-01-24T06:30:19.543Z,102179.23
2024-01-24T06:32:50.430Z,102186.57
2024-01-24T06:35:17.795Z,102182.21
2024-01-24T06:37:44.683Z,102176.27
2024-01-24T06:40:12.454Z,102181.70
2024-01-24T06:42:41.433Z,102182.94
2024-01-24T06:45:09.436Z,102186.41
2024-01-24T06:47:36.399Z,102190.46
2024-01-24T06:50:03.571Z,102187.85
2024-01-24T06:52:31.978Z,102188.23
2024-01-24T06:54:59.165Z,102188.92
2024-01-24T06:57:26.284Z,102191.02
2024-01-24T06:59:54.391Z,102188.20
2024-01-24T07:02:21.251Z,102193.27
2024-01-24T07:04:48.205Z,102186.98
2024-01-24T07:07:16.096Z,102184.88
2024-01-24T07:09:43.147Z,102187.33
2024-01-24T07:12:10.305Z,102179.98
2024-01-24T07:14:37.196Z,102179.28
2024-01-24T07:17:06.528Z,102169.13
2024-01-24T07:19:33.385Z,102173.46
2024-01-24T07:22:01.886Z,102167.64
2024-01-24T07:24:30.083Z,102155.50
2024-01-24T07:26:57.398Z,102155.97
2024-01-24T07:29:24.522Z,102159.37
2024-01-24T07:31:51.365Z,102161.23
2024-01-24T07:34:18.282Z,102168.90
2024-01-24T07:36:45.481Z,102163.05
2024-01-24T07:39:12.416Z,102165.98
2024-01-24T07:41:39.312Z,102164.00
2024-01-24T07:44:06.265Z,102166.23
2024-01-24T07:46:33.953Z,102169.34
2024-01-24T07:49:01.356Z,102169.66
2024-01-24T07:51:28.404Z,102167.34
2024-01-24T07:53:55.404Z,102166.09
2024-01-24T07:56:26.124Z,102170.29
2024-01-24T07:58:54.669Z,102166.77
2024-01-24T08:01:22.314Z,102158.87
2024-01-24T08:03:51.091Z,102162.70
2024-01-24T08:06:19.066Z,102159.19
2024-01-24T08:08:46.366Z,102165.98
2024-01-24T08:11:13.880Z,102160.01
2024-01-24T08:13:40.757Z,102158.55
2024-01-24T08:16:09.229Z,102165.19
2024-01-24T08:18:36.695Z,102171.96
2024-01-24T08:21:06.328Z,102163.54
2024-01-24T08:23:42.660Z,102166.45
2024-01-24T08:26:16.068Z,102167.27
2024-01-24T08:28:44.384Z,102163.55
2024-01-24T08:31:12.236Z,102174.52
2024-01-24T08:33:39.211Z,102182.71
2024-01-24T08:36:06.272Z,102177.41
2024-01-24T08:38:33.067Z,102176.31
2024-01-24T08:41:00.032Z,102174.38
2024-01-24T08:43:26.832Z,102170.69
2024-01-24T08:45:54.052Z,102176.10
2024-01-24T08:48:22.914Z,102178.36
2024-01-24T08:50:49.895Z,102185.69
2024-01-24T08:53:16.766Z,102189.19
2024-01-24T08:55:45.054Z,102179.85
2024-01-24T08:58:12.897Z,102173.66
2024-01-24T09:00:40.800Z,102174.87
2024-01-24T09:03:07.871Z,102172.41
2024-01-24T09:05:35.097Z,102173.54
2024-01-24T09:08:03.031Z,102164.55
2024-01-24T09:10:30.300Z,102156.25
2024-01-24T09:12:57.560Z,102156.17
2024-01-24T09:15:25.043Z,102164.33
2024-01-24T09:17:52.301Z,102162.48
2024-01-24T09:20:19.844Z,102162.18
2024-01-24T09:22:47.069Z,102157.33
2024-01-24T09:25:15.736Z,102158.45
2024-01-24T09:27:43.177Z,102163.94
2024-01-24T09:30:11.530Z,102158.42
2024-01-24T09:32:38.626Z,102168.31
2024-01-24T09:35:06.641Z,102172.46
2024-01-24T09:37:34.801Z,102167.30
2024-01-24T09:40:01.935Z,102158.83
2024-01-24T09:42:29.838Z,102151.08
2024-01-24T09:44:59.417Z,102146.46
2024-01-24T09:47:27.093Z,102141.14
2024-01-24T09:49:54.218Z,102145.06
2024-01-24T09:52:28.170Z,102142.32
2024-01-24T09:54:59.431Z,102141.83
2024-01-24T09:57:29.522Z,102132.92
2024-01-24T09:59:57.049Z,102132.82
2024-01-24T10:02:28.659Z,102127.42
2024-01-24T10:04:56.103Z,102118.70
2024-01-24T10:07:22.986Z,102116.29
2024-01-24T10:10:05.407Z,102111.94
2024-01-24T10:12:32.398Z,102114.09
2024-01-24T10:14:59.283Z,102114.35
2024-01-24T10:17:27.191Z,102109.36
2024-01-24T10:19:54.255Z,102106.48
2024-01-24T10:22:23.447Z,102102.40
2024-01-24T10:24:50.621Z,102103.23
2024-01-24T10:27:17.608Z,102095.80
2024-01-24T10:29:45.271Z,102093.27
2024-01-24T10:32:12.313Z,102087.91
2024-01-24T10:34:39.678Z,102083.08
2024-01-24T10:37:07.383Z,102081.23
2024-01-24T10:39:36.591Z,102075.64
2024-01-24T10:42:08.943Z,102071.52
2024-01-24T10:44:39.096Z,102065.94
2024-01-24T10:47:07.057Z,102064.07
2024-01-24T10:49:34.143Z,102067.43
2024-01-24T10:52:01.545Z,102059.97
2024-01-24T10:54:29.654Z,102053.05
2024-01-24T10:56:58.084Z,102046.64
2024-01-24T10:59:26.653Z,102047.73
2024-01-24T11:01:53.520Z,102051.83
2024-01-24T11:04:21.874Z,102056.97
2024-01-24T11:06:52.364Z,102049.15
2024-01-24T11:09:35.256Z,102041.80
2024-01-24T11:12:02.516Z,102035.12
2024-01-24T11:14:34.481Z,102030.00
2024-01-24T11:17:05.583Z,102023.51
2024-01-24T11:19:32.885Z,102020.14
2024-01-24T11:22:13.347Z,102013.56
2024-01-24T11:24:47.814Z,102008.39
2024-01-24T11:27:36.491Z,102002.50
2024-01-24T11:30:07.598Z,101995.87
2024-01-24T11:32:47.564Z,101990.97
2024-01-24T11:35:33.250Z,101978.29
2024-01-24T11:38:26.064Z,101966.73
2024-01-24T11:41:02.885Z,101961.16
2024-01-24T11:43:34.931Z,101959.55
2024-01-24T11:46:09.621Z,101961.64
2024-01-24T11:48:38.808Z,101957.66
2024-01-24T11:51:09.175Z,101949.43
2024-01-24T11:53:36.502Z,101950.69
2024-01-24T11:56:05.752Z,101939.55
2024-01-24T11:58:32.967Z,101935.69
2024-01-24T12:01:03.528Z,101926.39
2024-01-24T12:03:31.369Z,101917.39
2024-01-24T12:05:59.485Z,101908.98
2024-01-24T12:08:26.551Z,101910.30
2024-01-24T12:10:53.663Z,101903.77
2024-01-24T12:13:23.261Z,101904.18
2024-01-24T12:15:52.217Z,101905.10
2024-01-24T12:18:19.823Z,101910.66
2024-01-24T12:20:52.475Z,101910.39
2024-01-24T12:23:20.499Z,101903.72
2024-01-24T12:25:47.917Z,101898.66
2024-01-24T12:28:16.012Z,101901.16
2024-01-24T12:30:48.938Z,101894.98
2024-01-24T12:33:19.964Z,101887.05
2024-01-24T12:35:51.416Z,101880.43
2024-01-24T12:38:19.578Z,101871.73
2024-01-24T12:40:54.182Z,101869.17
2024-01-24T12:43:24.148Z,101860.68
2024-01-24T12:45:53.339Z,101856.83
2024-01-24T12:48:23.421Z,101857.72
2024-01-24T12:50:51.924Z,101858.13
2024-01-24T12:53:20.303Z,101856.58
2024-01-24T12:55:47.210Z,101851.79
2024-01-24T12:58:14.290Z,101841.32
2024-01-24T13:00:41.289Z,101832.70
2024-01-24T13:03:08.221Z,101829.86
2024-01-24T13:05:42.463Z,101819.70
2024-01-24T13:08:14.684Z,101813.67
2024-01-24T13:10:46.652Z,101814.06
2024-01-24T13:13:14.882Z,101821.92
2024-01-24T13:15:42.440Z,101818.32
2024-01-24T13:18:11.540Z,101817.63
2024-01-24T13:20:38.589Z,101817.20
2024-01-24T13:23:05.489Z,101812.92
2024-01-24T13:25:32.438Z,101805.09
2024-01-24T13:28:00.181Z,101813.91
2024-01-24T13:30:27.966Z,101811.69
2024-01-24T13:32:55.686Z,101809.71
2024-01-24T13:35:22.658Z,101807.95
2024-01-24T13:37:50.034Z,101799.08
2024-01-24T13:40:18.559Z,101800.06
2024-01-24T13:42:46.371Z,101803.35
2024-01-24T13:45:13.590Z,101801.07
2024-01-24T13:47:40.513Z,101801.15
2024-01-24T13:50:08.561Z,101795.89
2024-01-24T13:52:35.502Z,101793.36
2024-01-24T13:55:03.595Z,101794.80
2024-01-24T13:57:32.053Z,101789.90
2024-01-24T13:59:59.120Z,101782.25
2024-01-24T14:02:26.288Z,101771.08
2024-01-24T14:04:53.356Z,101774.95
2024-01-24T14:07:20.395Z,101779.06
2024-01-24T14:09:47.403Z,101775.41
2024-01-24T14:12:14.302Z,101769.78
2024-01-24T14:14:41.101Z,101766.38
2024-01-24T14:17:08.167Z,101761.51
2024-01-24T14:19:35.091Z,101767.67
2024-01-24T14:22:02.140Z,101767.94
2024-01-24T14:24:34.762Z,101752.50
2024-01-24T14:27:03.544Z,101747.53
2024-01-24T14:29:31.065Z,101763.14
2024-01-24T14:32:01.321Z,101768.30
2024-01-24T14:34:28.301Z,101758.89
2024-01-24T14:36:59.967Z,101740.02
2024-01-24T14:39:34.271Z,101753.52
2024-01-24T14:42:01.107Z,101762.18
2024-01-24T14:44:27.882Z,101765.28
2024-01-24T14:46:54.706Z,101754.83
2024-01-24T14:49:22.260Z,101754.90
2024-01-24T14:51:49.142Z,101764.85
2024-01-24T14:54:16.047Z,101763.53
2024-01-24T14:56:44.399Z,101765.79
2024-01-24T14:59:11.817Z,101765.56
2024-01-24T15:01:38.851Z,101776.18
2024-01-24T15:04:05.916Z,101762.58
2024-01-24T15:06:33.703Z,101763.31
2024-01-24T15:09:00.727Z,101762.61
2024-01-24T15:11:27.642Z,101764.17
2024-01-24T15:13:54.508Z,101765.94
2024-01-24T15:16:21.672Z,101762.20
2024-01-24T15:18:49.335Z,101761.17
2024-01-24T15:21:16.544Z,101773.88
2024-01-24T15:23:43.675Z,101773.60
2024-01-24T15:26:11.319Z,101774.63
2024-01-24T15:28:40.329Z,101766.70
2024-01-24T15:31:08.518Z,101765.65
2024-01-24T15:33:35.863Z,101762.11
2024-01-24T15:36:03.325Z,101761.21
2024-01-24T15:38:30.279Z,101755.77
2024-01-24T15:40:57.914Z,101748.36
2024-01-24T15:43:27.349Z,101750.80
2024-01-24T15:45:54.715Z,101742.30
2024-01-24T15:48:21.795Z,101741.41
2024-01-24T15:50:48.839Z,101737.83
2024-01-24T15:53:17.122Z,101738.47
2024-01-24T15:55:44.265Z,101739.96
2024-01-24T15:58:11.412Z,101737.11
2024-01-24T16:00:38.582Z,101747.07
2024-01-24T16:03:06.031Z,101747.38
2024-01-24T16:05:42.862Z,101747.86
2024-01-24T16:08:10.712Z,101755.05
2024-01-24T16:10:37.698Z,101755.73
2024-01-24T16:13:05.308Z,101755.84
2024-01-24T16:15:32.498Z,101757.36
2024-01-24T16:17:59.396Z,101753.59
2024-01-24T16:20:27.268Z,101755.23
2024-01-24T16:22:56.888Z,101756.31
2024-01-24T16:25:25.077Z,101753.92
2024-01-24T16:27:53.231Z,101755.83
2024-01-24T16:30:21.270Z,101753.58
2024-01-24T16:32:54.166Z,101748.02
2024-01-24T16:35:21.568Z,101746.21
2024-01-24T16:37:48.473Z,101739.95
2024-01-24T16:40:15.746Z,101738.83
2024-01-24T16:42:43.008Z,101746.20
2024-01-24T16:45:12.648Z,101742.98
2024-01-24T16:47:40.591Z,101744.30
2024-01-24T16:50:08.679Z,101741.27
2024-01-24T16:52:39.144Z,101744.94
2024-01-24T16:55:06.277Z,101746.98
2024-01-24T16:57:34.349Z,101747.41
2024-01-24T17:00:01.486Z,101743.46
2024-01-24T17:02:37.511Z,101743.28
2024-01-24T17:05:11.109Z,101739.14
2024-01-24T17:07:38.361Z,101735.19
2024-01-24T17:10:07.281Z,101726.48
2024-01-24T17:12:36.680Z,101729.77
2024-01-24T17:15:03.396Z,101727.27
2024-01-24T17:17:30.191Z,101720.98
2024-01-24T17:19:57.512Z,101720.80
2024-01-24T17:22:25.012Z,101727.95
2024-01-24T17:24:51.945Z,101733.20
2024-01-24T17:27:18.785Z,101733.88
2024-01-24T17:29:47.164Z,101737.91
2024-01-24T17:32:14.972Z,101737.55
2024-01-24T17:34:43.656Z,101746.14
2024-01-24T17:37:13.259Z,101747.83
2024-01-24T17:39:40.177Z,101753.90
2024-01-24T17:42:07.569Z,101753.75
2024-01-24T17:44:35.435Z,101759.02
2024-01-24T17:47:02.593Z,101757.48
2024-01-24T17:49:29.846Z,101768.89
2024-01-24T17:51:57.568Z,101761.66
2024-01-24T17:54:24.741Z,101754.73
2024-01-24T17:56:51.654Z,101765.95
2024-01-24T17:59:19.636Z,101768.11
2024-01-24T18:01:46.646Z,101776.09
2024-01-24T18:04:13.972Z,101775.81
2024-01-24T18:06:41.229Z,101775.88
2024-01-24T18:09:08.160Z,101774.39
2024-01-24T18:11:36.878Z,101781.30
2024-01-24T18:14:03.666Z,101776.11
2024-01-24T18:16:30.765Z,101782.67
2024-01-24T18:18:58.178Z,101788.55
2024-01-24T18:21:27.009Z,101784.06
2024-01-24T18:23:54.293Z,101791.12
2024-01-24T18:26:21.932Z,101788.55
2024-01-24T18:28:49.362Z,101786.49
2024-01-24T18:31:18.377Z,101786.18
2024-01-24T18:33:45.453Z,101784.29
2024-01-24T18:36:12.675Z,101777.84
2024-01-24T18:38:44.245Z,101776.65
2024-01-24T18:41:21.209Z,101775.13
2024-01-24T18:43:51.295Z,101780.45
2024-01-24T18:46:20.308Z,101782.65
2024-01-24T18:48:48.801Z,101781.02
2024-01-24T18:51:17.572Z,101774.83
2024-01-24T18:53:45.458Z,101781.41
2024-01-24T18:56:12.778Z,101780.95
2024-01-24T18:58:39.975Z,101783.98
2024-01-24T19:01:07.219Z,101773.67
2024-01-24T19:03:34.625Z,101764.80
2024-01-24T19:06:01.921Z,101761.83
2024-01-24T19:08:34.457Z,101757.52
2024-01-24T19:11:02.711Z,101757.02
2024-01-24T19:13:30.063Z,101748.18
2024-01-24T19:15:59.063Z,101754.77
2024-01-24T19:18:27.985Z,101757.10
2024-01-24T19:20:55.104Z,101755.95
2024-01-24T19:23:22.068Z,101746.49
2024-01-24T19:25:48.814Z,101746.15
2024-01-24T19:28:15.621Z,101745.45
2024-01-24T19:30:46.001Z,101744.05
2024-01-24T19:33:13.024Z,101737.73
2024-01-24T19:35:41.849Z,101730.91
2024-01-24T19:38:08.677Z,101736.92
2024-01-24T19:40:35.591Z,101734.14
2024-01-24T19:43:02.727Z,101730.50
2024-01-24T19:45:29.848Z,101728.14
2024-01-24T19:47:57.242Z,101723.15
2024-01-24T19:50:24.793Z,101724.11
2024-01-24T19:52:52.468Z,101712.43
2024-01-24T19:55:21.455Z,101713.77
2024-01-24T19:57:48.474Z,101717.52
2024-01-24T20:00:16.051Z,101722.47
2024-01-24T20:02:43.515Z,101724.64
2024-01-24T20:05:10.607Z,101726.54
2024-01-24T20:07:37.960Z,101728.48
2024-01-24T20:10:05.295Z,101721.02
2024-01-24T20:12:32.361Z,101716.52
2024-01-24T20:14:59.863Z,101709.53
2024-01-24T20:17:27.336Z,101710.23
2024-01-24T20:19:55.006Z,101712.34
2024-01-24T20:22:22.366Z,101713.23
2024-01-24T20:24:49.171Z,101705.42
2024-01-24T20:27:18.012Z,101707.55
2024-01-24T20:29:47.627Z,101699.91
2024-01-24T20:32:18.673Z,101698.20
2024-01-24T20:34:45.986Z,101698.38
2024-01-24T20:37:13.634Z,101702.06
2024-01-24T20:39:40.825Z,101703.80
2024-01-24T20:42:13.868Z,101693.86
2024-01-24T20:44:42.330Z,101688.36
2024-01-24T20:47:10.211Z,101693.48
2024-01-24T20:49:37.447Z,101686.32
2024-01-24T20:52:05.083Z,101686.54
2024-01-24T20:54:32.146Z,101685.01
2024-01-24T20:57:01.705Z,101688.55
2024-01-24T20:59:30.612Z,101680.84
2024-01-24T21:01:59.948Z,101686.97
2024-01-24T21:04:28.184Z,101684.84
2024-01-24T21:06:59.307Z,101686.75
2024-01-24T21:09:27.334Z,101695.50
2024-01-24T21:11:54.612Z,101691.96
2024-01-24T21:14:21.679Z,101690.06
2024-01-24T21:16:48.833Z,101696.93
2024-01-24T21:19:25.070Z,101689.81
2024-01-24T21:21:53.104Z,101710.04
2024-01-24T21:24:20.433Z,101694.34
2024-01-24T21:26:48.325Z,101693.50
2024-01-24T21:29:15.234Z,101705.10
2024-01-24T21:31:46.999Z,101698.59
2024-01-24T21:34:14.196Z,101701.55
2024-01-24T21:36:47.633Z,101697.33
2024-01-24T21:39:16.516Z,101694.66
2024-01-24T21:41:43.519Z,101704.68
2024-01-24T21:44:11.267Z,101702.23
2024-01-24T21:46:38.177Z,101703.51
2024-01-24T21:49:05.113Z,101709.54
2024-01-24T21:51:32.446Z,101702.23
2024-01-24T21:54:01.953Z,101703.35
2024-01-24T21:56:31.846Z,101702.95
2024-01-24T21:58:58.721Z,101698.94
2024-01-24T22:01:25.706Z,101697.55
2024-01-24T22:03:52.817Z,101703.11
2024-01-24T22:06:19.817Z,101698.02
2024-01-24T22:08:46.753Z,101693.66
2024-01-24T22:11:15.660Z,101700.33
2024-01-24T22:13:47.293Z,101696.86
2024-01-24T22:16:14.132Z,101695.81
2024-01-24T22:18:47.749Z,101694.77
2024-01-24T22:21:23.209Z,101713.92
2024-01-24T22:23:50.404Z,101697.02
2024-01-24T22:26:17.601Z,101695.17
2024-01-24T22:28:44.881Z,101711.81
2024-01-24T22:31:12.343Z,101701.99
2024-01-24T22:33:39.622Z,101690.81
2024-01-24T22:36:07.546Z,101693.65
2024-01-24T22:38:34.372Z,101688.17
2024-01-24T22:41:01.340Z,101692.89
2024-01-24T22:43:28.302Z,101682.91
2024-01-24T22:45:58.869Z,101692.53
2024-01-24T22:48:25.991Z,101693.61
2024-01-24T22:50:53.070Z,101689.45
2024-01-24T22:53:19.878Z,101695.27
2024-01-24T22:55:46.706Z,101688.24
2024-01-24T22:58:13.842Z,101686.98
2024-01-24T23:00:40.918Z,101684.70
2024-01-24T23:03:08.096Z,101677.66
2024-01-24T23:05:35.024Z,101668.04
2024-01-24T23:08:02.432Z,101675.96
2024-01-24T23:10:29.524Z,101683.54
2024-01-24T23:12:56.594Z,101674.98
2024-01-24T23:15:24.439Z,101677.15
2024-01-24T23:17:51.435Z,101680.52
2024-01-24T23:20:18.710Z,101675.70
2024-01-24T23:22:45.640Z,101653.51
2024-01-24T23:25:12.641Z,101662.14
2024-01-24T23:27:39.836Z,101668.08
2024-01-24T23:30:07.871Z,101654.55
2024-01-24T23:32:34.839Z,101658.73
2024-01-24T23:35:02.032Z,101665.19
2024-01-24T23:37:29.193Z,101654.86
2024-01-24T23:39:56.105Z,101652.77
2024-01-24T23:42:22.986Z,101667.14
2024-01-24T23:44:50.045Z,101659.48
2024-01-24T23:47:16.833Z,101660.10
2024-01-24T23:49:43.950Z,101661.91
2024-01-24T23:52:11.474Z,101648.33
2024-01-24T23:54:38.562Z,101650.80
2024-01-24T23:57:05.442Z,101655.88
2024-01-24T23:59:32.406Z,101656.17
